Time;durP1;ratioP1;P1;durP2;ratioP2;P2;SDS_P1;SDS_P2;PMS_P1;PMS_P2;Temp;Humidity;BMP_temperature;BMP_pressure;BME280_temperature;BME280_humidity;BME280_pressure;Samples;Min_cycle;Max_cycle;Signal;HPM_P1;HPM_P2
2023/11/23 06:01:57;;;;;;;18.10;10.00;;;3.00;77.90;;;;;;4176956;23;20058;-81
2023/11/23 06:04:00;;;;;;;16.48;10.75;;;3.00;78.00;;;;;;4094585;29;20106;-83
2023/11/23 06:06:02;;;;;;;18.45;10.45;;;3.00;78.00;;;;;;4085918;29;20059;-83
2023/11/23 06:08:04;;;;;;;16.45;9.93;;;3.00;78.10;;;;;;4077650;29;20108;-81
2023/11/23 06:10:07;;;;;;;16.75;9.75;;;3.00;78.10;;;;;;4070869;29;20486;-83
2023/11/23 06:12:10;;;;;;;16.40;10.43;;;3.00;78.10;;;;;;4087941;29;20481;-82
2023/11/23 06:14:12;;;;;;;16.95;9.82;;;3.00;78.00;;;;;;4088673;29;20087;-82
2023/11/23 06:16:14;;;;;;;15.80;10.07;;;3.00;78.00;;;;;;4091088;29;20185;-82
2023/11/23 06:18:18;;;;;;;15.23;9.70;;;3.00;78.00;;;;;;4090912;29;20079;-82
2023/11/23 06:20:19;;;;;;;14.68;9.13;;;3.00;78.10;;;;;;4104274;29;20051;-83
2023/11/23 06:22:21;;;;;;;15.57;9.75;;;3.00;78.10;;;;;;4115192;29;20059;-82
2023/11/23 06:24:23;;;;;;;15.45;8.98;;;3.00;78.20;;;;;;4114468;29;20078;-82
2023/11/23 06:26:24;;;;;;;15.52;9.32;;;3.00;78.30;;;;;;4116026;29;20050;-82
2023/11/23 06:28:26;;;;;;;15.20;8.90;;;3.00;78.20;;;;;;4115803;29;20062;-82
2023/11/23 06:30:27;;;;;;;15.70;9.43;;;3.00;78.30;;;;;;4112741;29;20079;-82
2023/11/23 06:32:29;;;;;;;13.75;8.75;;;3.00;78.40;;;;;;4102670;29;20047;-82
2023/11/23 06:34:32;;;;;;;14.32;8.88;;;3.00;78.30;;;;;;4102811;29;20058;-81
2023/11/23 06:36:34;;;;;;;14.30;9.15;;;3.00;78.40;;;;;;4102354;29;20055;-81
2023/11/23 06:38:36;;;;;;;14.85;8.63;;;3.00;78.30;;;;;;4102353;29;20043;-81
2023/11/23 06:40:38;;;;;;;13.73;8.75;;;3.00;78.30;;;;;;4101623;28;20047;-82
2023/11/23 06:42:40;;;;;;;14.52;8.80;;;3.00;78.20;;;;;;4101522;29;20477;-83
2023/11/23 06:44:42;;;;;;;16.33;9.75;;;3.00;78.10;;;;;;4102289;29;20199;-82
2023/11/23 06:46:44;;;;;;;15.65;9.45;;;3.00;78.00;;;;;;4102285;29;20394;-81
2023/11/23 06:48:46;;;;;;;15.52;9.43;;;3.00;78.10;;;;;;4102183;29;20114;-81
2023/11/23 06:50:49;;;;;;;14.00;8.88;;;3.00;78.20;;;;;;4102084;29;20107;-82
2023/11/23 06:52:51;;;;;;;14.80;9.20;;;3.00;78.30;;;;;;4104274;29;20047;-82
2023/11/23 06:54:53;;;;;;;17.08;9.60;;;2.90;78.20;;;;;;4102032;29;20059;-83
2023/11/23 06:56:55;;;;;;;13.70;8.38;;;2.90;78.30;;;;;;4092998;29;20059;-83
2023/11/23 06:58:58;;;;;;;13.25;8.57;;;2.90;78.40;;;;;;4086283;29;20083;-83
2023/11/23 07:01:02;;;;;;;16.20;8.75;;;2.90;78.30;;;;;;4086312;29;20470;-84
2023/11/23 07:03:04;;;;;;;14.90;8.70;;;2.90;78.30;;;;;;4086220;29;20503;-82
2023/11/23 07:05:06;;;;;;;16.35;9.27;;;2.90;78.50;;;;;;4086034;29;20047;-80
2023/11/23 07:07:10;;;;;;;14.90;9.10;;;2.90;78.60;;;;;;4086121;29;20047;-81
2023/11/23 07:09:13;;;;;;;16.35;9.32;;;2.90;78.80;;;;;;4086060;29;20062;-81
2023/11/23 07:11:18;;;;;;;15.18;8.73;;;2.80;78.70;;;;;;4086188;29;20409;-83
2023/11/23 07:13:19;;;;;;;14.32;8.85;;;2.80;78.70;;;;;;4086479;29;20497;-82
2023/11/23 07:15:24;;;;;;;14.20;8.85;;;2.80;78.80;;;;;;4086473;29;20102;-83
2023/11/23 07:17:26;;;;;;;14.13;8.80;;;2.80;78.80;;;;;;4085889;29;20134;-82
2023/11/23 07:19:28;;;;;;;15.13;8.57;;;2.80;79.00;;;;;;4085954;29;20055;-83
2023/11/23 07:21:30;;;;;;;14.02;8.38;;;2.80;79.00;;;;;;4085897;29;20147;-81
2023/11/23 07:23:32;;;;;;;13.30;8.27;;;2.80;79.10;;;;;;4086016;29;20127;-83
2023/11/23 07:25:35;;;;;;;14.45;8.55;;;2.80;78.90;;;;;;4085578;29;20366;-82
2023/11/23 07:27:37;;;;;;;15.27;8.55;;;2.80;78.90;;;;;;4085950;29;20134;-82
2023/11/23 07:29:39;;;;;;;13.43;8.15;;;2.90;78.90;;;;;;4085809;29;20539;-84
2023/11/23 07:31:41;;;;;;;12.75;7.50;;;2.90;78.90;;;;;;4085716;29;20055;-84
2023/11/23 07:33:44;;;;;;;12.60;7.65;;;2.90;78.80;;;;;;4087051;29;20060;-83
2023/11/23 07:35:48;;;;;;;14.68;7.78;;;2.90;78.70;;;;;;4085763;29;20047;-84
2023/11/23 07:37:50;;;;;;;12.38;7.68;;;2.90;78.70;;;;;;4085713;29;20048;-80
2023/11/23 07:39:52;;;;;;;11.90;7.30;;;2.90;78.90;;;;;;4085604;29;20073;-83
2023/11/23 07:41:54;;;;;;;13.00;7.32;;;2.90;78.90;;;;;;4085528;29;20051;-82
2023/11/23 07:43:57;;;;;;;13.43;7.97;;;2.90;79.10;;;;;;4085474;29;20101;-82
2023/11/23 07:46:00;;;;;;;14.38;8.00;;;2.90;79.00;;;;;;4085315;29;20412;-83
2023/11/23 07:48:08;;;;;;;14.07;7.93;;;2.90;79.60;;;;;;4085350;29;20477;-82
2023/11/23 07:50:10;;;;;;;12.25;7.47;;;2.90;79.00;;;;;;4085418;29;20048;-81
2023/11/23 07:52:12;;;;;;;13.20;7.82;;;3.00;79.20;;;;;;4084835;29;20461;-77
2023/11/23 07:54:14;;;;;;;11.98;7.30;;;3.00;79.10;;;;;;4085183;29;20056;-79
2023/11/23 07:56:18;;;;;;;14.50;7.25;;;3.00;79.10;;;;;;4089104;29;20046;-78
2023/11/23 07:58:20;;;;;;;14.93;7.95;;;2.90;79.10;;;;;;4100911;29;20503;-77
2023/11/23 08:00:23;;;;;;;13.25;7.35;;;2.90;79.30;;;;;;4101740;29;20050;-78
2023/11/23 08:02:26;;;;;;;12.85;7.68;;;2.90;79.30;;;;;;4084514;29;20139;-80
2023/11/23 08:04:28;;;;;;;13.02;6.85;;;3.00;79.10;;;;;;4085000;29;20067;-79
2023/11/23 08:06:30;;;;;;;13.27;7.95;;;3.00;79.10;;;;;;4086125;29;20055;-78
2023/11/23 08:08:32;;;;;;;11.60;7.43;;;3.00;79.30;;;;;;4086421;29;20076;-80
2023/11/23 08:10:33;;;;;;;15.82;7.68;;;3.00;79.20;;;;;;4086021;29;20062;-77
2023/11/23 08:12:36;;;;;;;13.18;7.28;;;3.10;79.10;;;;;;4085210;29;20079;-80
2023/11/23 08:14:38;;;;;;;13.32;7.32;;;3.10;79.80;;;;;;4085458;29;20060;-79
2023/11/23 08:16:40;;;;;;;11.82;7.15;;;3.00;78.90;;;;;;4085304;29;20429;-80
2023/11/23 08:18:45;;;;;;;13.25;7.25;;;3.00;79.10;;;;;;4085027;29;20118;-79
2023/11/23 08:20:47;;;;;;;11.55;7.18;;;3.10;79.40;;;;;;4085138;29;20048;-80
2023/11/23 08:22:49;;;;;;;15.35;7.20;;;3.00;79.30;;;;;;4085055;29;20119;-78
2023/11/23 08:24:50;;;;;;;14.00;7.57;;;3.10;79.40;;;;;;4085033;29;20051;-79
2023/11/23 08:26:52;;;;;;;11.77;6.95;;;3.00;79.30;;;;;;4084716;29;20549;-80
2023/11/23 08:28:56;;;;;;;12.18;7.55;;;3.00;79.50;;;;;;4084464;29;20490;-79
2023/11/23 08:30:58;;;;;;;12.90;7.85;;;3.10;79.60;;;;;;4084592;29;20143;-80
2023/11/23 08:33:00;;;;;;;13.00;7.60;;;3.10;79.70;;;;;;4084792;29;20055;-79
2023/11/23 08:35:03;;;;;;;12.15;6.95;;;3.20;79.60;;;;;;4084568;29;20052;-79
2023/11/23 08:37:05;;;;;;;11.52;7.20;;;3.20;79.20;;;;;;4072841;29;20055;-78
2023/11/23 08:39:06;;;;;;;12.50;6.70;;;3.20;78.50;;;;;;4067557;29;20287;-78
2023/11/23 08:41:08;;;;;;;11.60;6.90;;;3.20;78.70;;;;;;4066987;29;20048;-80
2023/11/23 08:43:12;;;;;;;11.63;6.93;;;3.20;78.40;;;;;;4067151;29;20107;-78
2023/11/23 08:45:16;;;;;;;12.35;6.18;;;3.20;78.30;;;;;;4067228;29;20196;-78
2023/11/23 08:47:18;;;;;;;9.93;5.93;;;3.30;78.30;;;;;;4067180;29;20059;-78
2023/11/23 08:49:20;;;;;;;11.02;5.70;;;3.30;77.90;;;;;;4067423;29;20063;-77
2023/11/23 08:51:22;;;;;;;9.73;5.60;;;3.40;77.30;;;;;;4067743;29;20084;-78
2023/11/23 08:53:24;;;;;;;9.02;5.25;;;3.40;76.80;;;;;;4066486;29;20116;-80
2023/11/23 08:55:26;;;;;;;9.82;5.50;;;3.50;76.30;;;;;;4064813;29;20397;-81
2023/11/23 08:57:28;;;;;;;8.55;4.90;;;3.60;76.10;;;;;;4093580;29;20055;-78
2023/11/23 08:59:31;;;;;;;8.98;5.00;;;3.60;75.50;;;;;;4098190;29;20086;-83
2023/11/23 09:01:35;;;;;;;7.55;5.03;;;3.70;76.10;;;;;;4097818;29;20063;-77
2023/11/23 09:03:37;;;;;;;8.18;5.05;;;3.80;74.80;;;;;;4098298;28;20117;-76
2023/11/23 09:05:39;;;;;;;7.93;4.53;;;3.80;74.30;;;;;;4100766;29;20047;-76
2023/11/23 09:07:39;;;;;;;8.00;4.55;;;3.80;74.10;;;;;;4101203;29;20047;-77
2023/11/23 09:09:41;;;;;;;8.32;4.50;;;3.90;73.70;;;;;;4101287;29;20058;-76
2023/11/23 09:11:44;;;;;;;8.85;4.40;;;3.90;72.80;;;;;;4101331;29;20134;-78
2023/11/23 09:13:46;;;;;;;8.73;4.47;;;4.00;72.90;;;;;;4101410;29;20804;-77
2023/11/23 09:15:47;;;;;;;10.02;5.13;;;3.90;72.10;;;;;;4101004;29;20075;-78
2023/11/23 09:17:51;;;;;;;7.22;4.18;;;4.00;71.90;;;;;;4101278;29;20055;-78
2023/11/23 09:19:53;;;;;;;8.55;4.80;;;4.00;71.40;;;;;;4101160;29;20063;-77
2023/11/23 09:21:56;;;;;;;10.35;4.22;;;4.10;71.60;;;;;;4101138;29;20403;-79
2023/11/23 09:23:58;;;;;;;7.68;4.18;;;4.10;71.20;;;;;;4100898;29;20599;-77
2023/11/23 09:26:00;;;;;;;7.40;3.85;;;4.20;70.60;;;;;;4100889;29;20116;-79
2023/11/23 09:28:02;;;;;;;6.50;3.80;;;4.30;70.60;;;;;;4100911;29;20047;-77
2023/11/23 09:30:06;;;;;;;7.20;3.60;;;4.40;70.00;;;;;;4100799;29;20059;-79
2023/11/23 09:32:09;;;;;;;5.93;3.50;;;4.40;69.40;;;;;;4100919;29;20051;-79
2023/11/23 09:34:13;;;;;;;6.65;3.75;;;4.50;69.20;;;;;;4100910;29;20047;-78
2023/11/23 09:36:15;;;;;;;6.00;3.70;;;4.50;69.30;;;;;;4100546;29;20106;-78
2023/11/23 09:38:17;;;;;;;7.45;3.45;;;4.60;69.40;;;;;;4100850;29;20058;-79
2023/11/23 09:40:20;;;;;;;6.38;3.63;;;4.60;69.10;;;;;;4100954;29;20082;-77
2023/11/23 09:42:22;;;;;;;6.80;3.47;;;4.60;69.10;;;;;;4101050;29;20051;-78
2023/11/23 09:44:26;;;;;;;7.72;3.55;;;4.70;69.30;;;;;;4100699;29;20058;-79
2023/11/23 09:46:29;;;;;;;6.40;3.30;;;4.80;69.30;;;;;;4100676;29;20089;-78
2023/11/23 09:48:34;;;;;;;8.60;3.80;;;4.90;69.20;;;;;;4100369;29;20492;-78
2023/11/23 09:50:38;;;;;;;8.13;4.28;;;4.90;69.50;;;;;;4100674;29;20055;-76
2023/11/23 09:52:41;;;;;;;6.50;3.30;;;5.00;69.60;;;;;;4100661;29;20130;-77
2023/11/23 09:54:44;;;;;;;8.25;3.38;;;5.00;69.60;;;;;;4098821;29;20051;-77
2023/11/23 09:56:47;;;;;;;6.30;3.33;;;5.10;69.40;;;;;;4092576;29;20052;-76
2023/11/23 09:58:50;;;;;;;6.05;3.28;;;5.20;69.30;;;;;;4084776;29;20482;-77
2023/11/23 10:00:52;;;;;;;7.60;3.90;;;5.20;69.40;;;;;;4084566;29;20063;-76
2023/11/23 10:02:56;;;;;;;6.68;3.53;;;5.30;69.30;;;;;;4085062;29;20054;-76
2023/11/23 10:04:58;;;;;;;6.07;3.20;;;5.40;69.40;;;;;;4084614;29;20052;-78
2023/11/23 10:07:01;;;;;;;6.32;3.53;;;5.50;69.30;;;;;;4084684;29;20079;-78
2023/11/23 10:09:06;;;;;;;7.20;3.28;;;5.60;69.20;;;;;;4084597;29;20438;-76
2023/11/23 10:11:08;;;;;;;7.20;3.53;;;5.60;69.00;;;;;;4084740;29;20519;-76
2023/11/23 10:13:11;;;;;;;6.35;3.33;;;5.70;68.90;;;;;;4084572;29;20051;-77
2023/11/23 10:15:13;;;;;;;5.57;3.00;;;5.80;68.70;;;;;;4084444;29;20083;-78
2023/11/23 10:17:14;;;;;;;7.22;3.60;;;5.90;68.20;;;;;;4084355;29;20055;-76
2023/11/23 10:19:21;;;;;;;6.60;3.28;;;5.90;68.10;;;;;;4084338;29;20482;-78
2023/11/23 10:21:23;;;;;;;6.03;3.10;;;6.00;68.20;;;;;;4084565;29;20130;-77
2023/11/23 10:23:27;;;;;;;6.05;3.35;;;6.00;67.80;;;;;;4084361;29;20066;-76
2023/11/23 10:25:31;;;;;;;5.90;3.30;;;6.00;67.90;;;;;;4084263;29;20405;-77
2023/11/23 10:27:33;;;;;;;5.93;2.72;;;6.00;68.40;;;;;;4084469;29;20417;-76
2023/11/23 10:29:35;;;;;;;5.13;2.80;;;6.00;68.50;;;;;;4084249;29;20062;-77
2023/11/23 10:31:37;;;;;;;6.20;2.78;;;6.10;68.90;;;;;;4084434;29;20059;-77
2023/11/23 10:33:39;;;;;;;5.80;2.70;;;6.10;68.90;;;;;;4084165;29;20056;-77
2023/11/23 10:35:46;;;;;;;6.00;2.70;;;6.20;69.10;;;;;;4084710;29;20441;-77
2023/11/23 10:37:54;;;;;;;5.95;2.85;;;6.20;69.20;;;;;;4084673;29;20122;-76
2023/11/23 10:39:57;;;;;;;5.90;3.00;;;6.20;69.50;;;;;;4084505;29;20540;-77
2023/11/23 10:42:00;;;;;;;5.93;3.00;;;6.30;70.10;;;;;;4084367;29;20051;-78
2023/11/23 10:44:03;;;;;;;7.95;3.40;;;6.30;70.10;;;;;;4084264;29;20458;-78
2023/11/23 10:46:09;;;;;;;5.65;3.28;;;6.30;69.70;;;;;;4084449;29;20063;-81
2023/11/23 10:48:12;;;;;;;5.28;2.60;;;6.30;69.90;;;;;;4084041;29;20059;-80
2023/11/23 10:50:15;;;;;;;4.18;2.15;;;6.40;70.40;;;;;;4084105;29;20087;-80
2023/11/23 10:52:19;;;;;;;4.45;2.22;;;6.40;70.60;;;;;;4084178;29;20082;-80
2023/11/23 10:54:22;;;;;;;5.03;2.40;;;6.50;71.20;;;;;;4082727;29;20111;-80
2023/11/23 10:56:28;;;;;;;4.75;2.33;;;6.60;71.80;;;;;;4089345;29;20058;-80
2023/11/23 10:58:37;;;;;;;3.80;1.90;;;6.60;72.20;;;;;;4100107;29;20055;-82
2023/11/23 11:00:40;;;;;;;5.47;2.13;;;6.70;72.60;;;;;;4099776;29;20077;-80
2023/11/23 11:02:43;;;;;;;3.67;1.85;;;6.70;72.50;;;;;;4099935;29;20099;-81
2023/11/23 11:04:45;;;;;;;5.57;2.15;;;6.70;72.10;;;;;;4100141;29;20110;-81
2023/11/23 11:06:47;;;;;;;5.38;2.58;;;6.70;72.30;;;;;;4100191;29;20043;-80
2023/11/23 11:08:50;;;;;;;6.75;3.20;;;6.80;72.60;;;;;;4100177;29;20078;-78
2023/11/23 11:10:53;;;;;;;5.40;2.60;;;6.80;72.70;;;;;;4099988;29;20047;-81
2023/11/23 11:13:08;;;;;;;5.85;1.95;;;6.80;72.60;;;;;;4100121;29;20059;-80
2023/11/23 11:15:16;;;;;;;3.58;1.83;;;6.90;72.60;;;;;;4100131;29;20051;-81
2023/11/23 11:17:18;;;;;;;5.22;2.05;;;6.90;72.80;;;;;;4100204;29;20051;-82
2023/11/23 11:19:23;;;;;;;3.97;1.75;;;6.90;72.30;;;;;;4100059;29;20182;-81
2023/11/23 11:21:25;;;;;;;5.78;2.05;;;7.00;72.70;;;;;;4099745;29;20054;-81
2023/11/23 11:23:40;;;;;;;4.70;1.90;;;7.00;72.80;;;;;;4099721;29;20054;-81
2023/11/23 11:25:43;;;;;;;4.90;1.80;;;7.00;73.10;;;;;;4099327;29;20058;-80
2023/11/23 11:27:44;;;;;;;4.32;1.98;;;7.00;73.10;;;;;;4098938;28;20097;-80
2023/11/23 11:29:51;;;;;;;3.80;1.70;;;6.90;72.90;;;;;;4099453;29;20051;-80
2023/11/23 11:31:54;;;;;;;4.13;1.77;;;6.90;73.10;;;;;;4099384;29;20086;-80
2023/11/23 11:33:56;;;;;;;4.70;1.80;;;6.90;73.20;;;;;;4082889;29;20148;-80
2023/11/23 11:36:00;;;;;;;4.32;2.05;;;7.00;73.50;;;;;;4099688;29;20101;-82
2023/11/23 11:38:02;;;;;;;5.13;1.80;;;7.00;73.60;;;;;;4100672;29;20043;-79
2023/11/23 11:40:06;;;;;;;4.35;1.92;;;7.00;73.50;;;;;;4101047;29;20074;-79
2023/11/23 11:42:10;;;;;;;4.82;1.88;;;7.00;73.30;;;;;;4100866;29;20070;-79
2023/11/23 11:44:13;;;;;;;3.55;1.85;;;7.00;73.60;;;;;;4099765;29;20416;-82
2023/11/23 11:46:16;;;;;;;3.72;1.73;;;7.00;73.40;;;;;;4099657;29;20137;-82
2023/11/23 11:48:19;;;;;;;3.78;1.65;;;7.00;73.40;;;;;;4099228;29;20051;-82
2023/11/23 11:50:20;;;;;;;4.03;1.63;;;7.00;73.40;;;;;;4101081;29;20055;-78
2023/11/23 11:52:22;;;;;;;4.18;1.63;;;7.00;73.30;;;;;;4101829;29;20051;-80
2023/11/23 11:54:26;;;;;;;3.25;1.38;;;7.00;73.40;;;;;;4098725;29;20055;-80
2023/11/23 11:56:28;;;;;;;3.42;1.55;;;7.10;73.80;;;;;;4093625;29;20075;-81
2023/11/23 11:58:30;;;;;;;3.05;1.40;;;7.10;73.90;;;;;;4083042;29;20051;-80
2023/11/23 12:00:36;;;;;;;3.65;1.80;;;7.10;73.80;;;;;;4082811;29;20477;-78
2023/11/23 12:02:40;;;;;;;;;;;7.10;73.70;;;;;;4083482;29;20051;-81
2023/11/23 12:04:43;;;;;;;4.55;1.67;;;7.10;74.00;;;;;;4085373;29;19926;-83
2023/11/23 12:06:48;;;;;;;4.50;1.58;;;7.10;74.10;;;;;;4087488;29;20051;-83
2023/11/23 12:08:49;;;;;;;5.32;1.77;;;7.10;74.10;;;;;;4087379;29;20154;-81
2023/11/23 12:10:53;;;;;;;3.13;1.63;;;7.20;74.00;;;;;;4086324;29;20055;-81
2023/11/23 12:12:54;;;;;;;4.22;1.80;;;7.10;74.00;;;;;;4086144;29;20063;-82
2023/11/23 12:14:57;;;;;;;3.67;1.70;;;7.10;73.70;;;;;;4086319;29;20056;-80
2023/11/23 12:17:10;;;;;;;3.72;1.70;;;7.20;74.10;;;;;;4086871;29;20398;-82
2023/11/23 12:19:17;;;;;;;3.97;1.83;;;7.20;74.30;;;;;;4085587;29;20103;-80
2023/11/23 12:21:19;;;;;;;5.05;2.10;;;7.20;74.00;;;;;;4086505;29;20056;-81
2023/11/23 12:23:20;;;;;;;3.72;1.67;;;7.20;74.10;;;;;;4086806;29;20108;-81
2023/11/23 12:25:23;;;;;;;3.78;1.65;;;7.20;74.30;;;;;;4086407;29;20498;-79
2023/11/23 12:27:24;;;;;;;3.80;1.63;;;7.20;74.40;;;;;;4083034;29;20052;-79
2023/11/23 12:29:29;;;;;;;4.18;1.65;;;7.20;74.60;;;;;;4082784;29;20058;-82
2023/11/23 12:31:30;;;;;;;3.40;1.50;;;7.30;74.80;;;;;;4082635;29;20052;-79
2023/11/23 12:33:33;;;;;;;3.25;1.73;;;7.30;74.70;;;;;;4082485;29;20047;-79
2023/11/23 12:35:36;;;;;;;3.67;1.60;;;7.30;74.90;;;;;;4082665;29;20067;-80
2023/11/23 12:37:38;;;;;;;2.85;1.38;;;7.40;74.80;;;;;;4082349;29;20418;-80
2023/11/23 12:39:40;;;;;;;4.13;1.50;;;7.40;75.10;;;;;;4082560;29;20494;-80
2023/11/23 12:41:42;;;;;;;3.70;1.60;;;7.40;75.10;;;;;;4082435;29;20052;-80
2023/11/23 12:43:45;;;;;;;3.05;1.40;;;7.40;75.00;;;;;;4082573;29;20052;-81
2023/11/23 12:45:47;;;;;;;4.28;1.38;;;7.40;74.70;;;;;;4088085;29;20059;-79
2023/11/23 12:47:48;;;;;;;3.38;1.55;;;7.40;74.80;;;;;;4093401;29;20059;-80
2023/11/23 12:49:51;;;;;;;2.97;1.38;;;7.50;74.80;;;;;;4087099;29;20056;-79
2023/11/23 12:51:54;;;;;;;2.97;1.33;;;7.50;74.80;;;;;;4083027;29;20055;-80
2023/11/23 12:53:56;;;;;;;2.78;1.35;;;7.50;74.70;;;;;;4081335;29;20063;-78
2023/11/23 12:55:59;;;;;;;2.92;1.20;;;7.50;74.80;;;;;;4084368;29;20052;-78
2023/11/23 12:58:01;;;;;;;3.13;1.35;;;7.50;74.60;;;;;;4098410;29;20494;-80
2023/11/23 13:00:04;;;;;;;2.88;1.13;;;7.60;74.80;;;;;;4098139;29;20122;-80
2023/11/23 13:02:08;;;;;;;2.80;1.13;;;7.50;74.60;;;;;;4098070;29;20150;-81
2023/11/23 13:04:10;;;;;;;3.55;1.10;;;7.60;74.80;;;;;;4099169;29;20081;-81
2023/11/23 13:06:15;;;;;;;2.88;1.20;;;7.60;74.60;;;;;;4099308;29;20054;-80
2023/11/23 13:08:19;;;;;;;3.92;1.15;;;7.60;74.60;;;;;;4098780;29;20051;-79
2023/11/23 13:10:22;;;;;;;4.60;1.30;;;7.60;75.00;;;;;;4097943;29;20501;-81
2023/11/23 13:12:24;;;;;;;3.65;1.33;;;7.60;74.90;;;;;;4097867;29;20055;-79
2023/11/23 13:14:26;;;;;;;19.30;7.75;;;7.60;75.00;;;;;;4098099;29;20059;-80
2023/11/23 13:16:27;;;;;;;9.68;4.28;;;7.60;75.00;;;;;;4097957;29;20055;-79
2023/11/23 13:18:30;;;;;;;7.43;3.25;;;7.60;75.10;;;;;;4097973;29;20102;-80
2023/11/23 13:20:32;;;;;;;2.67;1.30;;;7.60;75.40;;;;;;4098380;29;20059;-80
2023/11/23 13:22:34;;;;;;;2.90;1.30;;;7.60;75.30;;;;;;4098457;29;20047;-80
2023/11/23 13:24:38;;;;;;;3.55;0.90;;;7.60;75.40;;;;;;4098194;29;20457;-81
2023/11/23 13:26:40;;;;;;;2.95;1.20;;;7.60;75.30;;;;;;4098314;29;20468;-79
2023/11/23 13:28:44;;;;;;;2.35;0.98;;;7.60;75.10;;;;;;4098283;29;20058;-80
2023/11/23 13:30:46;;;;;;;2.78;1.08;;;7.60;75.20;;;;;;4098348;29;20583;-80
2023/11/23 13:32:47;;;;;;;2.85;1.25;;;7.70;75.40;;;;;;4098318;29;20473;-79
2023/11/23 13:34:50;;;;;;;2.72;1.10;;;7.70;75.30;;;;;;4098040;29;20055;-79
2023/11/23 13:36:51;;;;;;;3.10;1.30;;;7.70;75.20;;;;;;4097809;29;20138;-79
2023/11/23 13:38:53;;;;;;;2.28;1.08;;;7.70;75.10;;;;;;4098214;29;20131;-79
2023/11/23 13:40:58;;;;;;;2.17;1.00;;;7.70;75.30;;;;;;4098019;29;20083;-78
2023/11/23 13:43:00;;;;;;;3.10;1.30;;;7.80;75.40;;;;;;4097953;29;20066;-80
2023/11/23 13:45:06;;;;;;;2.40;0.98;;;7.70;75.00;;;;;;4098112;29;20048;-79
2023/11/23 13:47:08;;;;;;;5.22;1.13;;;7.70;75.10;;;;;;4097957;29;20047;-78
2023/11/23 13:49:11;;;;;;;2.58;1.00;;;7.80;75.20;;;;;;4080804;29;20470;-79
2023/11/23 13:51:17;;;;;;;2.55;0.98;;;7.80;75.20;;;;;;4099833;28;20051;-79
2023/11/23 13:53:19;;;;;;;3.03;1.33;;;7.80;75.10;;;;;;4101347;29;20083;-79
2023/11/23 13:55:20;;;;;;;3.38;1.42;;;7.80;75.10;;;;;;4099026;29;20047;-79
2023/11/23 13:57:23;;;;;;;4.18;1.30;;;7.80;74.80;;;;;;4088233;29;20056;-79
2023/11/23 13:59:25;;;;;;;2.90;1.17;;;7.80;75.10;;;;;;4085134;29;20497;-79
2023/11/23 14:01:26;;;;;;;4.07;1.10;;;7.80;75.30;;;;;;4084715;29;20071;-80
2023/11/23 14:03:30;;;;;;;4.00;1.10;;;7.80;75.20;;;;;;4088395;29;20102;-78
2023/11/23 14:05:32;;;;;;;2.25;0.93;;;7.80;75.10;;;;;;4085042;29;20434;-80
2023/11/23 14:07:34;;;;;;;3.42;1.00;;;7.90;75.20;;;;;;4084831;29;20063;-80
2023/11/23 14:09:36;;;;;;;2.50;0.90;;;7.90;75.20;;;;;;4084699;29;20342;-82
2023/11/23 14:11:38;;;;;;;3.05;1.10;;;7.90;75.10;;;;;;4085034;29;20469;-82
2023/11/23 14:13:41;;;;;;;3.53;1.02;;;8.00;75.00;;;;;;4084593;29;20119;-81
2023/11/23 14:15:43;;;;;;;3.53;1.10;;;8.00;75.00;;;;;;4086398;29;20052;-83
2023/11/23 14:17:46;;;;;;;2.67;1.00;;;8.00;75.80;;;;;;4088883;29;20075;-81
2023/11/23 14:19:47;;;;;;;2.65;1.00;;;8.10;74.80;;;;;;4088154;29;20103;-82
2023/11/23 14:21:50;;;;;;;2.95;0.93;;;9.90;72.70;;;;;;4086745;29;20048;-80
2023/11/23 14:23:51;;;;;;;2.10;0.90;;;11.00;66.90;;;;;;4085707;29;20055;-79
2023/11/23 14:25:53;;;;;;;2.30;0.93;;;11.90;62.30;;;;;;4086007;29;20511;-81
2023/11/23 14:27:55;;;;;;;2.20;0.77;;;13.00;58.60;;;;;;4085719;29;20059;-82
2023/11/23 14:29:59;;;;;;;1.67;0.60;;;14.20;55.10;;;;;;4084879;29;20059;-82
2023/11/23 14:32:03;;;;;;;1.67;0.60;;;14.20;53.80;;;;;;4084786;29;20058;-80
2023/11/23 14:34:05;;;;;;;1.90;0.80;;;13.70;54.20;;;;;;4084566;29;20062;-79
2023/11/23 14:36:09;;;;;;;1.60;0.73;;;13.30;55.10;;;;;;4083875;29;20478;-81
2023/11/23 14:38:14;;;;;;;1.95;0.60;;;12.10;57.40;;;;;;4075327;29;20536;-80
2023/11/23 14:40:18;;;;;;;1.83;0.63;;;11.50;59.50;;;;;;4084373;29;20107;-81
2023/11/23 14:42:21;;;;;;;1.70;0.73;;;10.90;61.30;;;;;;4084156;29;20099;-81
2023/11/23 14:44:23;;;;;;;2.40;0.77;;;10.60;62.70;;;;;;4084369;29;20553;-79
2023/11/23 14:46:26;;;;;;;1.70;0.75;;;10.30;63.60;;;;;;4084423;29;20115;-81
2023/11/23 14:48:28;;;;;;;3.42;1.50;;;10.00;64.90;;;;;;4084042;29;20838;-81
2023/11/23 14:50:30;;;;;;;1.92;0.80;;;9.80;65.90;;;;;;4084100;29;20071;-79
2023/11/23 14:52:32;;;;;;;1.63;0.75;;;9.70;66.40;;;;;;4084124;29;20059;-78
2023/11/23 14:54:33;;;;;;;1.42;0.60;;;9.50;66.80;;;;;;4082106;29;20119;-82
2023/11/23 14:56:35;;;;;;;2.30;0.60;;;9.30;67.50;;;;;;4090788;29;20055;-80
2023/11/23 14:58:37;;;;;;;2.55;0.60;;;9.20;68.20;;;;;;4099707;29;20051;-80
2023/11/23 15:00:40;;;;;;;2.05;0.70;;;9.20;68.40;;;;;;4099411;29;20055;-81
2023/11/23 15:02:45;;;;;;;5.68;2.10;;;9.20;68.80;;;;;;4098574;28;20154;-81
2023/11/23 15:04:48;;;;;;;3.42;1.35;;;9.10;68.90;;;;;;4099682;29;20145;-81
2023/11/23 15:06:49;;;;;;;22.30;9.32;;;9.00;69.30;;;;;;4100091;29;20522;-80
2023/11/23 15:08:52;;;;;;;4.68;1.73;;;8.90;69.40;;;;;;4097138;29;20102;-83
2023/11/23 15:10:54;;;;;;;1.63;0.60;;;8.90;69.90;;;;;;4081631;29;20529;-80
2023/11/23 15:12:57;;;;;;;1.67;0.60;;;8.90;69.90;;;;;;4084863;29;20556;-79
2023/11/23 15:14:58;;;;;;;1.17;0.50;;;8.80;70.20;;;;;;4083987;29;20377;-78
2023/11/23 15:16:59;;;;;;;2.10;0.50;;;8.70;70.30;;;;;;4083596;29;20051;-79
2023/11/23 15:19:04;;;;;;;2.33;0.60;;;8.70;70.70;;;;;;4082066;29;20055;-79
2023/11/23 15:21:06;;;;;;;1.77;0.63;;;8.70;70.90;;;;;;4083618;29;20068;-79
2023/11/23 15:23:10;;;;;;;1.60;0.60;;;8.60;70.90;;;;;;4083667;29;20088;-78
2023/11/23 15:25:11;;;;;;;1.38;0.55;;;8.50;71.70;;;;;;4083284;29;20047;-78
2023/11/23 15:27:14;;;;;;;1.70;0.60;;;8.50;71.80;;;;;;4083781;29;20056;-78
2023/11/23 15:29:16;;;;;;;2.00;0.60;;;8.50;72.10;;;;;;4083521;29;20099;-78
2023/11/23 15:31:18;;;;;;;2.38;0.90;;;8.40;72.40;;;;;;4082867;29;20123;-79
2023/11/23 15:33:20;;;;;;;1.63;0.70;;;8.40;72.50;;;;;;4066210;29;20063;-79
2023/11/23 15:35:23;;;;;;;1.90;0.70;;;8.40;72.70;;;;;;4083501;29;20075;-80
2023/11/23 15:37:25;;;;;;;1.30;0.50;;;8.40;72.60;;;;;;4083299;29;20059;-79
2023/11/23 15:39:27;;;;;;;1.50;0.50;;;8.30;72.90;;;;;;4081822;29;20043;-77
2023/11/23 15:41:28;;;;;;;2.08;0.70;;;8.30;73.00;;;;;;4076391;29;20055;-82
2023/11/23 15:43:30;;;;;;;1.70;0.60;;;8.20;73.20;;;;;;4083737;29;20512;-80
2023/11/23 15:45:32;;;;;;;1.13;0.57;;;8.20;73.40;;;;;;4067699;29;20048;-83
2023/11/23 15:47:35;;;;;;;1.38;0.50;;;8.20;73.50;;;;;;4067797;29;20055;-81
2023/11/23 15:49:37;;;;;;;1.92;0.68;;;8.20;73.70;;;;;;4083077;29;20059;-81
2023/11/23 15:51:40;;;;;;;1.80;0.70;;;8.10;74.00;;;;;;4083498;29;20544;-81
2023/11/23 15:53:42;;;;;;;3.55;0.80;;;8.10;74.00;;;;;;4083385;29;20138;-80
2023/11/23 15:55:43;;;;;;;2.60;0.88;;;8.10;74.30;;;;;;4081473;29;20048;-81
2023/11/23 15:57:46;;;;;;;2.05;0.80;;;8.10;74.50;;;;;;4082897;29;20494;-81
2023/11/23 15:59:48;;;;;;;2.75;1.05;;;8.10;74.70;;;;;;4083054;29;20428;-80
2023/11/23 16:01:50;;;;;;;2.38;0.90;;;8.00;74.80;;;;;;4082624;29;20059;-79
2023/11/23 16:03:52;;;;;;;1.92;0.80;;;8.00;75.10;;;;;;4082914;29;20510;-81
2023/11/23 16:05:55;;;;;;;1.95;0.75;;;8.00;75.00;;;;;;4082988;29;20059;-79
2023/11/23 16:08:00;;;;;;;2.22;0.70;;;8.00;75.10;;;;;;4081712;29;20494;-81
2023/11/23 16:10:03;;;;;;;1.85;0.80;;;8.00;75.20;;;;;;4083210;29;20056;-82
2023/11/23 16:12:08;;;;;;;1.52;0.70;;;8.00;75.30;;;;;;4083146;29;20410;-82
2023/11/23 16:14:10;;;;;;;1.48;0.60;;;7.90;75.50;;;;;;4082206;29;20089;-82
2023/11/23 16:16:12;;;;;;;1.42;0.80;;;7.90;75.70;;;;;;4083123;29;20059;-80
2023/11/23 16:18:14;;;;;;;1.92;0.85;;;7.90;75.80;;;;;;4086084;29;20075;-80
2023/11/23 16:20:18;;;;;;;1.83;0.70;;;7.90;75.80;;;;;;4082737;29;20108;-81
2023/11/23 16:22:20;;;;;;;1.50;0.75;;;7.90;75.90;;;;;;4082312;29;20059;-80
2023/11/23 16:24:24;;;;;;;1.42;0.68;;;7.90;76.00;;;;;;4081975;29;20056;-83
2023/11/23 16:26:26;;;;;;;1.65;0.70;;;7.90;76.10;;;;;;4082967;29;20080;-83
2023/11/23 16:28:28;;;;;;;1.52;0.60;;;7.80;76.10;;;;;;4081172;29;20056;-81
2023/11/23 16:30:30;;;;;;;3.53;1.00;;;7.80;76.20;;;;;;4082064;29;20066;-81
2023/11/23 16:32:30;;;;;;;2.00;0.90;;;7.80;76.30;;;;;;4082580;29;20055;-82
2023/11/23 16:34:32;;;;;;;2.33;0.80;;;7.80;76.20;;;;;;4082762;29;20154;-80
2023/11/23 16:36:34;;;;;;;1.92;0.80;;;7.80;76.20;;;;;;4082815;29;20047;-81
2023/11/23 16:38:36;;;;;;;2.40;0.80;;;7.80;76.40;;;;;;4082786;29;20055;-81
2023/11/23 16:40:41;;;;;;;3.67;1.60;;;7.80;76.50;;;;;;4081818;29;20110;-80
2023/11/23 16:42:43;;;;;;;2.63;0.98;;;7.80;76.60;;;;;;4082244;29;20047;-80
2023/11/23 16:44:47;;;;;;;2.58;0.70;;;7.70;76.60;;;;;;4082998;29;20051;-81